Time;durP1;ratioP1;P1;durP2;ratioP2;P2;SDS_P1;SDS_P2;PMS_P1;PMS_P2;Temp;Humidity;BMP_temperature;BMP_pressure;BME280_temperature;BME280_humidity;BME280_pressure;Samples;Min_cycle;Max_cycle;Signal;HPM_P1;HPM_P2
2022/03/17 05:48:40;;;;;;;;;4.50;4.50;;;;;;;;2;243264981;243264981;-83
2022/03/17 06:24:13;;;;;;;;;4.50;4.50;;;;;;;;2;243137842;243137842;-82
2022/03/17 06:32:28;;;;;;;;;9.00;5.00;;;;;;;;2;261074824;261074824;-82
2022/03/17 06:41:28;;;;;;;;;4.00;4.00;;;;;;;;2;261078076;261078076;-84
2022/03/17 06:49:44;;;;;;;;;4.00;4.00;;;;;;;;2;261074060;261074060;-83
2022/03/17 06:58:44;;;;;;;;;4.00;4.00;;;;;;;;2;261077172;261077172;-83
2022/03/17 07:07:00;;;;;;;;;2.00;2.00;;;;;;;;2;261081588;261081588;-84
2022/03/17 07:16:02;;;;;;;;;3.00;3.00;;;;;;;;2;261076759;261076759;-84
2022/03/17 07:24:18;;;;;;;;;3.50;3.50;;;;;;;;2;261078843;261078843;-84
2022/03/17 07:33:18;;;;;;;;;1.50;1.50;;;;;;;;2;261079817;261079817;-82
2022/03/17 07:41:34;;;;;;;;;3.50;3.50;;;;;;;;2;261078654;261078654;-83
2022/03/17 07:50:34;;;;;;;;;0.00;0.00;;;;;;;;2;261073773;261073773;-81
2022/03/17 07:58:50;;;;;;;;;3.00;3.00;;;;;;;;2;261077867;261077867;-82
2022/03/17 08:07:52;;;;;;;;;3.00;3.00;;;;;;;;2;261077997;261077997;-82
2022/03/17 08:16:10;;;;;;;;;4.00;4.00;;;;;;;;2;261074081;261074081;-84
2022/03/17 08:25:11;;;;;;;;;8.00;4.00;;;;;;;;2;261077320;261077320;-83
2022/03/17 08:33:26;;;;;;;;;7.00;4.50;;;;;;;;2;261078322;261078322;-83
2022/03/17 08:42:27;;;;;;;;;30.00;4.50;;;;;;;;2;261077197;261077197;-83
2022/03/17 08:50:44;;;;;;;;;4.50;4.50;;;;;;;;2;261084151;261084151;-83
2022/03/17 08:59:45;;;;;;;;;6.00;6.00;;;;;;;;2;261077136;261077136;-85
2022/03/17 09:08:00;;;;;;;;;4.00;4.00;;;;;;;;2;261077311;261077311;-84
2022/03/17 09:17:01;;;;;;;;;14.50;3.00;;;;;;;;2;261074466;261074466;-84
2022/03/17 09:25:26;;;;;;;;;11.50;11.50;;;;;;;;2;261080469;261080469;-84
2022/03/17 09:34:27;;;;;;;;;5.50;5.50;;;;;;;;2;261076101;261076101;-83
2022/03/17 09:42:43;;;;;;;;;5.00;5.00;;;;;;;;2;261079814;261079814;-84
2022/03/17 09:51:45;;;;;;;;;3.50;3.50;;;;;;;;2;261078019;261078019;-84
2022/03/17 10:00:01;;;;;;;;;8.50;8.50;;;;;;;;2;261080500;261080500;-84
2022/03/17 10:09:01;;;;;;;;;5.00;3.50;;;;;;;;2;261080164;261080164;-83
2022/03/17 10:17:34;;;;;;;;;25.50;4.50;;;;;;;;2;261079362;261079362;-83
2022/03/17 10:26:49;;;;;;;;;7.50;7.50;;;;;;;;2;261081512;261081512;-83
2022/03/17 10:35:08;;;;;;;;;17.00;6.00;;;;;;;;2;261077683;261077683;-84
2022/03/17 10:44:12;;;;;;;;;8.00;8.00;;;;;;;;2;261075162;261075162;-83
2022/03/17 10:52:46;;;;;;;;;5.00;5.00;;;;;;;;2;261077439;261077439;-83
2022/03/17 11:01:47;;;;;;;;;2.50;2.50;;;;;;;;2;261080004;261080004;-84
2022/03/17 11:10:07;;;;;;;;;8.50;5.50;;;;;;;;2;261079660;261079660;-83
2022/03/17 11:19:12;;;;;;;;;4.00;4.00;;;;;;;;2;261080059;261080059;-83
2022/03/17 11:27:42;;;;;;;;;8.00;8.00;;;;;;;;2;261074798;261074798;-81
2022/03/17 11:37:03;;;;;;;;;10.00;10.00;;;;;;;;2;261077747;261077747;-84
2022/03/17 11:45:19;;;;;;;;;7.00;7.00;;;;;;;;2;261082638;261082638;-83
2022/03/17 11:54:20;;;;;;;;;5.50;5.50;;;;;;;;2;261082022;261082022;-83
2022/03/17 12:02:35;;;;;;;;;23.00;15.50;;;;;;;;2;261076630;261076630;-84
2022/03/17 12:11:37;;;;;;;;;8.50;8.50;;;;;;;;2;261072089;261072089;-84
2022/03/17 12:20:16;;;;;;;;;4.00;4.00;;;;;;;;2;261075508;261075508;-86
2022/03/17 12:29:26;;;;;;;;;20.00;8.50;;;;;;;;2;261082020;261082020;-84
2022/03/17 12:37:42;;;;;;;;;12.50;12.50;;;;;;;;2;261081999;261081999;-84
2022/03/17 12:46:45;;;;;;;;;11.00;8.00;;;;;;;;2;261081550;261081550;-84
2022/03/17 12:55:04;;;;;;;;;11.00;11.00;;;;;;;;2;261076908;261076908;-85
2022/03/17 13:04:04;;;;;;;;;11.50;11.50;;;;;;;;2;261077990;261077990;-84
2022/03/17 13:21:40;;;;;;;;;31.00;19.00;;;;;;;;2;261080420;261080420;-85
2022/03/17 13:29:56;;;;;;;;;10.50;10.50;;;;;;;;2;261079331;261079331;-84
2022/03/17 13:39:09;;;;;;;;;25.50;9.50;;;;;;;;2;261078153;261078153;-84
2022/03/17 13:47:25;;;;;;;;;11.00;7.00;;;;;;;;2;261079731;261079731;-85
2022/03/17 13:52:40;;;;;;;;;13.50;13.50;;;;;;;;2;261079106;261079106;-85
2022/03/17 14:01:08;;;;;;;;;6.50;6.50;;;;;;;;2;261077281;261077281;-85
2022/03/17 14:10:09;;;;;;;;;15.00;15.00;;;;;;;;2;261081765;261081765;-86
2022/03/17 14:18:24;;;;;;;;;11.50;11.50;;;;;;;;2;261082924;261082924;-85
2022/03/17 14:27:26;;;;;;;;;15.00;11.00;;;;;;;;2;261083546;261083546;-85
2022/03/17 14:35:43;;;;;;;;;8.50;8.50;;;;;;;;2;261079629;261079629;-85
2022/03/17 14:44:43;;;;;;;;;24.50;15.50;;;;;;;;2;261082075;261082075;-89
2022/03/17 14:52:58;;;;;;;;;25.00;13.00;;;;;;;;2;261081091;261081091;-87
2022/03/17 15:01:59;;;;;;;;;22.00;12.00;;;;;;;;2;261079930;261079930;-87
2022/03/17 15:10:15;;;;;;;;;6.00;6.00;;;;;;;;2;261082297;261082297;-86
2022/03/17 15:19:18;;;;;;;;;6.00;6.00;;;;;;;;2;261081293;261081293;-86
2022/03/17 15:30:53;;;;;;;;;17.00;9.00;;;;;;;;2;261085119;261085119;-86
2022/03/17 15:48:29;;;;;;;;;8.50;8.50;;;;;;;;2;261077612;261077612;-82
2022/03/17 15:57:30;;;;;;;;;13.00;13.00;;;;;;;;2;261081378;261081378;-87
2022/03/17 16:05:45;;;;;;;;;11.50;8.50;;;;;;;;2;261080160;261080160;-85
2022/03/17 16:14:50;;;;;;;;;21.00;21.00;;;;;;;;2;261078315;261078315;-85
2022/03/17 16:23:05;;;;;;;;;3.00;3.00;;;;;;;;2;261072650;261072650;-84
2022/03/17 16:41:02;;;;;;;;;26.50;17.00;;;;;;;;2;261080527;261080527;-82
2022/03/17 16:50:14;;;;;;;;;11.50;11.50;;;;;;;;2;261076391;261076391;-84
2022/03/17 16:59:04;;;;;;;;;;;;;;;;;;;;;
2022/03/17 17:08:05;;;;;;;;;10.50;10.50;;;;;;;;2;261108358;261108358;-84
2022/03/17 17:16:23;;;;;;;;;25.50;13.50;;;;;;;;2;261082075;261082075;-83
2022/03/17 17:33:58;;;;;;;;;14.00;14.00;;;;;;;;2;261075678;261075678;-81
2022/03/17 17:43:05;;;;;;;;;16.50;16.50;;;;;;;;2;261074536;261074536;-81
2022/03/17 17:51:21;;;;;;;;;5.50;5.50;;;;;;;;2;261075805;261075805;-81
2022/03/17 18:00:21;;;;;;;;;21.00;9.00;;;;;;;;2;261075889;261075889;-82
2022/03/17 18:09:15;;;;;;;;;7.00;7.00;;;;;;;;2;261073593;261073593;-84
2022/03/17 18:18:16;;;;;;;;;9.00;9.00;;;;;;;;2;261080291;261080291;-84
2022/03/17 18:26:32;;;;;;;;;21.50;9.50;;;;;;;;2;261078824;261078824;-84
2022/03/17 18:35:32;;;;;;;;;11.00;11.00;;;;;;;;2;261075712;261075712;-85
2022/03/17 18:43:49;;;;;;;;;16.00;16.00;;;;;;;;2;261078980;261078980;-84
2022/03/17 18:52:52;;;;;;;;;18.50;14.50;;;;;;;;2;261077572;261077572;-82
2022/03/17 19:01:10;;;;;;;;;22.50;19.00;;;;;;;;2;261082082;261082082;-82
2022/03/17 19:10:11;;;;;;;;;25.00;13.00;;;;;;;;2;261080353;261080353;-82
2022/03/17 19:18:26;;;;;;;;;16.00;16.00;;;;;;;;2;261076150;261076150;-83
2022/03/17 19:27:30;;;;;;;;;20.50;16.00;;;;;;;;2;261083250;261083250;-82
2022/03/17 19:36:20;;;;;;;;;;;;;;;;;;;;;
2022/03/17 19:45:24;;;;;;;;;30.50;22.00;;;;;;;;2;261106588;261106588;-82
2022/03/17 19:53:51;;;;;;;;;10.50;9.00;;;;;;;;2;261091222;261091222;-83
2022/03/17 20:02:52;;;;;;;;;23.00;23.00;;;;;;;;2;261082040;261082040;-84
2022/03/17 20:20:27;;;;;;;;;19.50;19.50;;;;;;;;2;261084366;261084366;-82
2022/03/17 20:28:43;;;;;;;;;31.00;19.50;;;;;;;;2;261082210;261082210;-83
2022/03/17 20:37:43;;;;;;;;;22.00;22.00;;;;;;;;2;261079739;261079739;-82
2022/03/17 20:45:59;;;;;;;;;23.00;23.00;;;;;;;;2;261084260;261084260;-83
2022/03/17 20:55:00;;;;;;;;;22.50;22.50;;;;;;;;2;261083262;261083262;-82
2022/03/17 21:03:15;;;;;;;;;41.50;29.00;;;;;;;;2;261089558;261089558;-83
2022/03/17 21:12:19;;;;;;;;;50.50;32.50;;;;;;;;2;261084818;261084818;-82
2022/03/17 21:35:19;;;;;;;;;60.50;47.00;;;;;;;;176320;27;261075674;-84
2022/03/17 21:44:20;;;;;;;;;36.50;33.50;;;;;;;;2;261081710;261081710;-84
2022/03/17 21:52:35;;;;;;;;;31.50;30.00;;;;;;;;2;261077510;261077510;-84
2022/03/17 22:10:35;;;;;;;;;48.50;35.00;;;;;;;;2;261078574;261078574;-83
2022/03/17 22:20:05;;;;;;;;;;;;;;;;;;;;;
2022/03/17 22:28:21;;;;;;;;;36.50;34.00;;;;;;;;2;261112316;261112316;-84
2022/03/17 22:37:22;;;;;;;;;34.50;32.50;;;;;;;;2;261076279;261076279;-85
2022/03/17 22:45:39;;;;;;;;;47.00;32.50;;;;;;;;2;261076741;261076741;-84
2022/03/17 22:54:39;;;;;;;;;47.00;33.50;;;;;;;;2;261077475;261077475;-85
2022/03/17 23:02:55;;;;;;;;;23.50;23.50;;;;;;;;2;261075632;261075632;-83
2022/03/17 23:11:55;;;;;;;;;40.50;23.00;;;;;;;;2;261080793;261080793;-83
2022/03/17 23:20:15;;;;;;;;;39.50;23.00;;;;;;;;2;261073607;261073607;-84
2022/03/17 23:29:16;;;;;;;;;26.00;25.50;;;;;;;;2;261076721;261076721;-83
2022/03/17 23:37:34;;;;;;;;;28.50;17.50;;;;;;;;2;261075788;261075788;-85
2022/03/17 23:46:34;;;;;;;;;20.50;20.50;;;;;;;;2;261074098;261074098;-85
2022/03/17 23:54:50;;;;;;;;;24.00;13.00;;;;;;;;2;261077978;261077978;-85
